TimeCEST,TemperatureF,Dew PointF,Humidity,Sea Level PressureIn,VisibilityMPH,Wind Direction,Wind SpeedMPH,Gust SpeedMPH,PrecipitationIn,Events,Conditions,WindDirDegrees,DateUTC
12:20 AM,44.6,39.2,81,30.01,-9999.0,SE,5.8,-,N/A,,Clear,130,2012-10-09 22:20:00
12:50 AM,44.6,39.2,81,30.01,-9999.0,SE,4.6,-,N/A,,Clear,140,2012-10-09 22:50:00
1:20 AM,42.8,39.2,87,30.01,-9999.0,SE,5.8,-,N/A,,Clear,140,2012-10-09 23:20:00
1:50 AM,42.8,39.2,87,30.01,-9999.0,Variable,4.6,-,N/A,,Clear,0,2012-10-09 23:50:00
2:00 AM,43,39,81,30.04,7,,4.5,,,,Scattered Clouds,,2012-10-10 00:00:00
2:20 AM,42.8,39.2,87,30.01,-9999.0,SE,5.8,-,N/A,,Clear,140,2012-10-10 00:20:00
2:50 AM,42.8,37.4,81,30.01,-9999.0,ESE,4.6,-,N/A,,Clear,120,2012-10-10 00:50:00
3:20 AM,42.8,37.4,81,30.01,-9999.0,SE,8.1,-,N/A,,Clear,130,2012-10-10 01:20:00
3:50 AM,42.8,37.4,81,30.01,-9999.0,SE,6.9,-,N/A,,Clear,130,2012-10-10 01:50:00
4:50 AM,42.8,37.4,81,29.98,-9999.0,Variable,2.3,-,N/A,,Clear,0,2012-10-10 02:50:00
5:00 AM,42,36,74,30.02,11,East,2.2,,,,Scattered Clouds,100,2012-10-10 03:00:00
5:20 AM,39.2,35.6,87,29.98,-9999.0,ENE,3.5,-,N/A,,Clear,60,2012-10-10 03:20:00
5:50 AM,39.2,35.6,87,29.98,-9999.0,Variable,2.3,-,N/A,,Clear,0,2012-10-10 03:50:00
6:20 AM,41.0,35.6,81,29.98,-9999.0,ESE,3.5,16.1,N/A,,Clear,120,2012-10-10 04:20:00
6:50 AM,39.2,35.6,87,29.98,-9999.0,SE,5.8,-,N/A,,Clear,140,2012-10-10 04:50:00
7:20 AM,39.2,37.4,93,29.98,5.6,SE,4.6,-,N/A,,Unknown,130,2012-10-10 05:20:00
7:50 AM,41.0,35.6,81,29.98,-9999.0,Variable,2.3,-,N/A,,Clear,0,2012-10-10 05:50:00
8:00 AM,40,36,79,30.01,6,ESE,2.2,,,,Clear,120,2012-10-10 06:00:00
8:20 AM,39.2,35.6,87,29.98,-9999.0,SE,6.9,-,N/A,,Clear,130,2012-10-10 06:20:00
8:50 AM,41.0,35.6,81,29.98,-9999.0,SE,4.6,-,N/A,,Clear,130,2012-10-10 06:50:00
9:20 AM,41.0,35.6,81,29.98,-9999.0,SE,5.8,-,N/A,,Clear,130,2012-10-10 07:20:00
9:50 AM,42.8,37.4,81,30.01,-9999.0,SE,5.8,-,N/A,,Clear,130,2012-10-10 07:50:00
10:20 AM,46.4,39.2,76,30.01,-9999.0,SE,3.5,-,N/A,,Clear,130,2012-10-10 08:20:00
10:50 AM,50.0,39.2,66,30.01,-9999.0,ENE,3.5,-,N/A,,Clear,60,2012-10-10 08:50:00
11:00 AM,49,39,59,30.02,6,ENE,4.5,,,,Clear,60,2012-10-10 09:00:00
11:20 AM,50.0,39.2,66,30.01,-9999.0,NE,3.5,-,N/A,,Clear,50,2012-10-10 09:20:00
11:50 AM,51.8,39.2,62,30.01,-9999.0,NE,8.1,-,N/A,,Clear,40,2012-10-10 09:50:00
12:20 PM,51.8,37.4,58,30.01,-9999.0,NE,8.1,-,N/A,,Clear,40,2012-10-10 10:20:00
12:50 PM,51.8,41.0,67,30.01,6.2,NNE,9.2,-,N/A,,Partly Cloudy,30,2012-10-10 10:50:00
1:20 PM,53.6,37.4,54,30.01,6.2,NE,6.9,-,N/A,,Partly Cloudy,40,2012-10-10 11:20:00
1:50 PM,53.6,37.4,54,29.98,6.2,ENE,8.1,-,N/A,,Partly Cloudy,60,2012-10-10 11:50:00
2:00 PM,53,38,44,30.01,6,ENE,8.9,,,,Scattered Clouds,60,2012-10-10 12:00:00
2:20 PM,51.8,37.4,58,29.98,6.2,NE,10.4,-,N/A,,Partly Cloudy,40,2012-10-10 12:20:00
2:50 PM,53.6,37.4,54,29.98,6.2,NE,8.1,-,N/A,,Scattered Clouds,50,2012-10-10 12:50:00
3:20 PM,53.6,37.4,54,29.98,6.2,NE,11.5,-,N/A,,Scattered Clouds,40,2012-10-10 13:20:00
3:50 PM,53.6,35.6,51,29.98,6.2,NNE,10.4,-,N/A,,Partly Cloudy,30,2012-10-10 13:50:00
4:20 PM,53.6,37.4,54,29.98,6.2,NE,9.2,-,N/A,,Partly Cloudy,40,2012-10-10 14:20:00
4:50 PM,53.6,37.4,54,29.98,6.2,NE,10.4,-,N/A,,Partly Cloudy,40,2012-10-10 14:50:00
5:00 PM,53,37,42,29.99,6,NE,11.2,,,,Scattered Clouds,40,2012-10-10 15:00:00
5:20 PM,51.8,35.6,54,29.98,6.2,NE,11.5,-,N/A,,Partly Cloudy,40,2012-10-10 15:20:00
5:50 PM,51.8,37.4,58,29.98,-9999.0,NE,10.4,-,N/A,,Clear,50,2012-10-10 15:50:00
6:20 PM,50.0,35.6,58,29.98,-9999.0,NE,9.2,-,N/A,,Clear,50,2012-10-10 16:20:00
6:50 PM,50.0,37.4,62,29.98,-9999.0,ENE,8.1,-,N/A,,Clear,60,2012-10-10 16:50:00
7:20 PM,46.4,37.4,71,29.98,-9999.0,ENE,6.9,-,N/A,,Clear,60,2012-10-10 17:20:00
7:50 PM,48.2,37.4,66,29.98,-9999.0,East,5.8,-,N/A,,Clear,80,2012-10-10 17:50:00
8:00 PM,47,38,60,30.00,19,East,4.5,,,,Clear,80,2012-10-10 18:00:00
8:20 PM,46.4,37.4,71,29.98,-9999.0,East,6.9,-,N/A,,Clear,80,2012-10-10 18:20:00
8:50 PM,46.4,37.4,71,29.98,-9999.0,East,6.9,-,N/A,,Clear,90,2012-10-10 18:50:00
9:20 PM,46.4,37.4,71,29.98,-9999.0,East,5.8,-,N/A,,Clear,100,2012-10-10 19:20:00
9:50 PM,46.4,37.4,71,29.98,-9999.0,SE,3.5,-,N/A,,Clear,130,2012-10-10 19:50:00
10:20 PM,44.6,37.4,76,29.98,-9999.0,ESE,5.8,-,N/A,,Clear,120,2012-10-10 20:20:00
10:50 PM,44.6,37.4,76,29.98,-9999.0,ESE,5.8,-,N/A,,Clear,110,2012-10-10 20:50:00
11:00 PM,45,37,64,30.00,9,ESE,6.7,,,,,110,2012-10-10 21:00:00
11:20 PM,44.6,37.4,76,29.98,-9999.0,ESE,6.9,-,N/A,,Clear,120,2012-10-10 21:20:00
11:50 PM,44.6,37.4,76,29.98,-9999.0,SE,5.8,-,N/A,,Clear,130,2012-10-10 21:50:00